Bautista Pino — EASK — position and weather

sailwx.info

Track history (hours):
 
Tides and Currents Weather Stations Pressure Air Temp Water Temp Dewpoint Dewpoint Depression Visibility Wind Speed Wind Dir Waves Ship Positions

Bautista Pino

Last reported at 2014-Dec-03 10:28 UTC. Time now 2014-Dec-23 04:28 UTC.
Position N 43°36' W 005°41'.
Warning: this ship's position is 19 days out of date.

Type: Fishing. MMSI: 224181290.

Date/timePositionNaut miles runAvg speedWind from/ knotsBaromVisibWave heightAir tempDewpointWater temp
2014-Dec-03 10:28N 43°36' W 005°41'3 3.3
2014-Dec-03 09:31N 43°33' W 005°42'7 7.6
2014-Dec-03 08:32N 43°39' W 005°47'  
2014-Nov-25 19:33N 43°34' W 005°41'9 8.7
2014-Nov-25 18:32N 43°40' W 005°49'9 0.5
2014-Nov-25 02:32N 43°35' W 005°39'3 3.0
2014-Nov-25 01:33N 43°33' W 005°42'0 0.0
2014-Nov-25 00:33N 43°33' W 005°42'0 0.0
2014-Nov-24 23:33N 43°33' W 005°42'0 0.0
2014-Nov-24 22:30N 43°33' W 005°42'0 0.0
2014-Nov-24 20:30N 43°33' W 005°42'6 6.3
2014-Nov-24 19:33N 43°39' W 005°46'  
Track history (hours):
 
Tides and Currents Weather Stations Pressure Air Temp Water Temp Dewpoint Dewpoint Depression Visibility Wind Speed Wind Dir Waves Ship Positions

Bautista Pino

Last reported at 2014-Dec-03 10:28 UTC. Time now 2014-Dec-23 04:28 UTC.
Position N 43°36' W 005°41'.
Warning: this ship's position is 19 days out of date.

Type: Fishing. MMSI: 224181290.

Date/timePositionNaut miles runAvg speedWind from/ knotsBaromVisibWave heightAir tempDewpointWater temp
2014-Dec-03 10:28N 43°36' W 005°41'3 3.3
2014-Dec-03 09:31N 43°33' W 005°42'7 7.6
2014-Dec-03 08:32N 43°39' W 005°47'  
2014-Nov-25 19:33N 43°34' W 005°41'9 8.7
2014-Nov-25 18:32N 43°40' W 005°49'9 0.5
2014-Nov-25 02:32N 43°35' W 005°39'3 3.0
2014-Nov-25 01:33N 43°33' W 005°42'0 0.0
2014-Nov-25 00:33N 43°33' W 005°42'0 0.0
2014-Nov-24 23:33N 43°33' W 005°42'0 0.0
2014-Nov-24 22:30N 43°33' W 005°42'0 0.0
2014-Nov-24 20:30N 43°33' W 005°42'6 6.3
2014-Nov-24 19:33N 43°39' W 005°46'  

Dump ship's entire track history